Data for 08/10/2006

Time Sea-Level Adjusted Pressure Absolute Pressure Temperature Relative Humidity Dew Point   
(mb) (inHg) (mb) (inHg) (C) (F) (%) (C) (F)
00:05 1022 30.18 851 25.13 18.1 64.5 47 6.7 44.1
00:10 1022 30.18 851 25.13 17.7 63.8 49 6.8 44.2
00:15 1022 30.18 851 25.13 17.3 63.2 50 6.9 44.4
00:20 1022 30.18 851 25.13 17.2 62.9 51 7.2 44.9
00:25 1022 30.18 851 25.13 17 62.6 52 7.3 45.2
00:30 1022 30.18 851 25.13 16.7 62 57 8.2 46.7
00:35 1022 30.18 851 25.13 16.8 62.2 52 6.9 44.3
00:40 1022 30.18 851 25.13 16.4 61.6 51 6.3 43.4
00:45 1022 30.18 851 25.13 16.5 61.7 52 6.7 44
00:50 1022 30.18 851 25.13 16.2 61.2 53 6.8 44.3
00:55 1022 30.18 851 25.13 16.2 61.2 53 6.7 44.1
01:00 1022 30.18 851 25.13 16.2 61.1 54 6.9 44.4
01:05 1022 30.18 851 25.13 16.5 61.6 56 7.9 46.2
01:10 1022 30.18 851 25.13 16.6 61.9 51 6.6 43.9
01:15 1022 30.18 851 25.13 16.5 61.8 52 6.7 44
01:20 1022 30.18 851 25.13 16.3 61.4 61 8.8 47.9
01:25 1022 30.18 851 25.13 15.9 60.7 53 6.6 43.8
01:30 1022 30.18 851 25.13 15.5 60 55 6.7 44
01:35 1022 30.18 851 25.13 15.2 59.4 55 6.2 43.2
01:40 1022 30.18 851 25.13 15 59 56 6.3 43.3
01:45 1022 30.18 851 25.13 14.9 58.7 55 5.9 42.7
01:50 1022 30.18 851 25.13 15 58.9 54 5.8 42.4
01:55 1022 30.18 851 25.13 14.9 58.8 54 5.8 42.4
02:00 1022 30.18 851 25.13 14.8 58.6 52 5.2 41.4
02:05 1022 30.18 852 25.16 15 59 52 5.4 41.7
02:10 1022 30.18 852 25.16 15.1 59.3 52 5.4 41.8
02:15 1022 30.18 852 25.16 15.3 59.5 52 5.6 42.2
02:20 1022 30.18 852 25.16 15.2 59.4 52 5.6 42.1
02:25 1022 30.18 852 25.16 15.4 59.7 58 7.2 45
02:30 1022 30.18 852 25.16 15.4 59.8 53 6 42.7
02:35 1022 30.18 852 25.16 15.2 59.4 59 7.4 45.3
02:40 1022 30.18 852 25.16 15.3 59.6 53 6 42.8
02:45 1022 30.18 852 25.16 15.1 59.2 58 7.1 44.7
02:50 1022 30.18 852 25.16 15.5 59.9 50 5.2 41.4
02:55 1022 30.18 852 25.16 15.3 59.6 55 6.4 43.5
03:00 1022 30.18 852 25.16 15.3 59.5 52 5.6 42
03:05 1022 30.18 852 25.16 15.2 59.3 52 5.6 42
03:10 1022 30.18 852 25.16 15 59.1 53 5.7 42.2
03:15 1022 30.18 852 25.16 15.1 59.1 52 5.5 41.8
03:20 1022 30.18 852 25.16 15.1 59.3 54 6.1 42.9
03:25 1022 30.18 852 25.16 14.8 58.6 54 5.7 42.3
03:30 1022 30.18 852 25.16 14.7 58.4 54 5.6 42.1
03:35 1022 30.18 852 25.16 14.6 58.3 55 5.6 42.1
03:40 1022 30.18 852 25.16 14.4 57.9 57 6 42.7
03:45 1022 30.18 852 25.16 14.7 58.5 52 5.1 41.3
03:50 1022 30.18 852 25.16 14.7 58.5 54 5.6 42.1
03:55 1022 30.18 852 25.16 14.7 58.4 56 6.1 42.9
04:00 1022 30.18 852 25.16 14.8 58.7 52 5.2 41.4
04:05 1022 30.18 852 25.16 14.4 57.9 57 6 42.9
04:10 1022 30.18 852 25.16 14.2 57.5 56 5.5 41.9
04:15 1022 30.18 852 25.16 14 57.1 63 7 44.6
04:20 1022 30.18 852 25.16 14.1 57.4 56 5.6 42
04:25 1022 30.18 852 25.16 14 57.1 58 5.9 42.6
04:30 1022 30.18 852 25.16 13.9 57.1 59 6.2 43.1
04:35 1022 30.18 852 25.16 13.6 56.5 59 5.9 42.6
04:40 1022 30.18 852 25.16 13.4 56.2 60 5.8 42.5
04:45 1022 30.18 852 25.16 13.3 56 60 5.9 42.6
04:50 1022 30.18 852 25.16 13.2 55.8 60 5.8 42.4
04:55 1022 30.18 852 25.16 13.3 55.9 60 5.7 42.3
05:00 1022 30.18 852 25.16 13.5 56.2 59 5.6 42.1
05:05 1022 30.18 852 25.16 14 57.1 57 5.6 42
05:10 1022 30.18 852 25.16 14.1 57.4 55 5.3 41.6
05:15 1022 30.18 852 25.16 14.3 57.7 54 5.1 41.1
05:20 1022 30.18 852 25.16 14.7 58.4 54 5.4 41.7
05:25 1022 30.18 852 25.16 14.3 57.7 55 5.4 41.7
05:30 1022 30.18 852 25.16 14.4 57.9 55 5.5 42
05:35 1022 30.18 852 25.16 14.3 57.8 61 6.9 44.5
05:40 1022 30.18 852 25.16 14.5 58.2 53 5.1 41.2
05:45 1022 30.18 851 25.13 14.8 58.7 52 5.2 41.4
05:50 1022 30.18 851 25.13 14.8 58.7 52 5.3 41.5
05:55 1022 30.18 851 25.13 14.5 58.2 54 5.4 41.7
06:00 1022 30.18 851 25.13 14.5 58.2 54 5.4 41.7
06:05 1022 30.18 851 25.13 14.3 57.8 55 5.4 41.7
06:10 1022 30.18 851 25.13 14.2 57.5 56 5.5 41.9
06:15 1022 30.18 851 25.13 14.2 57.6 55 5.5 41.9
06:20 1022 30.18 851 25.13 13.9 57.1 57 5.7 42.3
06:25 1022 30.18 851 25.13 13.7 56.6 58 5.5 42
06:30 1022 30.18 851 25.13 13.7 56.6 57 5.4 41.7
06:35 1022 30.18 851 25.13 13.6 56.5 57 5.3 41.6
06:40 1022 30.18 851 25.13 13.7 56.7 58 5.7 42.3
06:45 1022 30.18 851 25.13 13.4 56.1 61 6 42.8
06:50 1022 30.18 852 25.16 13.5 56.3 58 5.5 41.9
06:55 1022 30.18 852 25.16 13.6 56.4 58 5.6 42.1
07:00 1022 30.18 852 25.16 13.7 56.6 58 5.5 41.9
07:05 1022 30.18 852 25.16 13.7 56.7 56 5.1 41.2
07:10 1022 30.18 852 25.16 14.2 57.6 62 7 44.7
07:15 1022 30.18 852 25.16 14.4 57.8 56 5.7 42.3
07:20 1022 30.18 852 25.16 14.3 57.8 60 6.6 43.9
07:25 1022 30.18 852 25.16 14.4 58 55 5.6 42.2
07:30 1022 30.18 852 25.16 14.5 58.1 64 7.9 46.3
07:35 1022 30.18 851 25.13 14.9 58.8 54 5.7 42.3
07:40 1022 30.18 851 25.13 15 59 56 6.4 43.5
07:45 1022 30.18 852 25.16 15.4 59.7 52 5.7 42.3
07:50 1022 30.18 852 25.16 15.5 59.9 52 5.8 42.5
07:55 1022 30.18 851 25.13 15.9 60.7 56 7.2 44.9
08:00 1022 30.18 852 25.16 16.1 61 51 6 42.8
08:05 1022 30.18 852 25.16 16.2 61.2 49 5.4 41.8
08:10 1022 30.18 851 25.13 16.5 61.8 48 5.7 42.3
08:15 1022 30.18 851 25.13 16.9 62.5 51 6.9 44.5
08:20 1022 30.18 851 25.13 17.4 63.4 45 5.4 41.8
08:25 1022 30.18 852 25.16 17.8 64.1 45 5.9 42.7
08:30 1022 30.18 852 25.16 17.9 64.2 51 7.8 46
08:35 1022 30.18 851 25.13 18.2 64.7 45 6.3 43.3
08:40 1022 30.18 851 25.13 18.6 65.4 47 7.1 44.9
08:45 1022 30.18 851 25.13 18.8 65.8 44 6.4 43.5
08:50 1022 30.18 851 25.13 19.4 66.9 43 6.5 43.7
08:55 1022 30.18 851 25.13 19.7 67.4 41 6.1 43
09:00 1022 30.18 851 25.13 19.7 67.5 42 6.6 43.8
09:05 1022 30.18 851 25.13 20.2 68.3 40 6.4 43.5
09:10 1022 30.18 851 25.13 20.8 69.4 40 6.8 44.3
09:15 1022 30.18 851 25.13 20.7 69.3 40 6.8 44.3
09:20 1022 30.18 851 25.13 20.7 69.3 39 6.4 43.5
09:25 1022 30.18 851 25.13 20.5 68.8 39 6.1 43.1
09:30 1022 30.18 851 25.13 21 69.9 36 5.4 41.7
09:35 1022 30.18 851 25.13 21.1 70 37 6.2 43.2
09:40 1022 30.18 851 25.13 21.4 70.5 36 5.8 42.4
09:45 1022 30.18 851 25.13 21.7 71 35 5.7 42.3
09:50 1022 30.18 851 25.13 21.8 71.2 35 5.8 42.5
09:55 1022 30.18 851 25.13 22 71.6 38 7.1 44.7
10:00 1022 30.18 851 25.13 21.8 71.2 39 7.4 45.3
10:05 1022 30.18 851 25.13 21.7 71 39 7.3 45.1
10:10 1022 30.18 851 25.13 21.4 70.5 39 6.9 44.5
10:15 1022 30.18 851 25.13 21.2 70.2 39 6.9 44.4
10:20 1022 30.18 851 25.13 21.3 70.3 38 6.7 44.1
10:25 1022 30.18 851 25.13 22.5 72.5 35 6.3 43.3
10:30 1022 30.18 851 25.13 22.7 72.9 34 6.4 43.5
10:35 1022 30.18 851 25.13 22.9 73.3 33 6 42.8
10:40 1022 30.18 851 25.13 23.4 74.1 33 6.6 43.8
10:45 1022 30.18 851 25.13 23.9 74.9 32 6.3 43.4
10:50 1022 30.18 851 25.13 23.4 74.1 33 6.3 43.4
10:55 1022 30.18 851 25.13 23.9 74.9 32 6.3 43.4
11:00 1022 30.18 851 25.13 23.9 75.1 32 6.6 43.9
11:05 1022 30.18 851 25.13 23.2 73.8 32 6 42.7
11:10 1021 30.15 851 25.13 23.1 73.5 33 6.3 43.3
11:15 1021 30.15 851 25.13 22.9 73.2 33 6.1 42.9
11:20 1021 30.15 850 25.1 23.7 74.7 31 5.8 42.5
11:25 1021 30.15 850 25.1 24.4 75.9 31 6.4 43.6
11:30 1021 30.15 850 25.1 24.1 75.4 30 5.8 42.5
11:35 1021 30.15 850 25.1 24.4 76 30 6 42.9
11:40 1021 30.15 850 25.1 24.8 76.6 29 6 42.9
11:45 1021 30.15 850 25.1 25 77 28 5.4 41.7
11:50 1021 30.15 850 25.1 25.2 77.3 27 5.4 41.7
11:55 1021 30.15 850 25.1 25.8 78.5 27 5.5 41.8
12:00 1021 30.15 850 25.1 26.1 78.9 28 6.2 43.2
12:05 1021 30.15 850 25.1 25.6 78.1 27 5.6 42.1
12:10 1021 30.15 850 25.1 26.5 79.6 25 5.4 41.6
12:15 1021 30.15 850 25.1 26.3 79.3 27 5.8 42.5
12:20 1020 30.12 850 25.1 25.6 78.1 26 5.1 41.2
12:25 1020 30.12 850 25.1 26.5 79.8 25 5.3 41.5
12:30 1020 30.12 850 25.1 26.9 80.3 25 5.6 42.1
12:35 1020 30.12 849 25.07 26.4 79.6 24 4.8 40.7
12:40 1020 30.12 849 25.07 26.7 80 26 5.7 42.2
12:45 1020 30.12 849 25.07 26.3 79.3 25 4.7 40.5
12:50 1020 30.12 849 25.07 27.2 81 24 5 41
12:55 1020 30.12 849 25.07 28 82.4 23 5.5 41.8
13:00 1020 30.12 849 25.07 27.6 81.7 24 5.4 41.7
13:05 1020 30.12 849 25.07 27.8 82 23 5.4 41.7
13:10 1020 30.12 849 25.07 27.7 81.8 23 5.2 41.4
13:15 1020 30.12 849 25.07 27.7 81.9 24 5.5 42
13:20 1020 30.12 849 25.07 27.7 81.9 25 6.2 43.1
13:25 1020 30.12 849 25.07 28.2 82.8 24 6 42.8
13:30 1020 30.12 849 25.07 28.7 83.6 22 5.4 41.8
13:35 1020 30.12 849 25.07 28.9 84 22 5.6 42.1
13:40 1019 30.09 849 25.07 29 84.2 22 5.4 41.8
13:45 1019 30.09 849 25.07 28.8 83.8 22 5.2 41.4
13:50 1019 30.09 849 25.07 28.5 83.3 22 4.9 40.7
13:55 1019 30.09 849 25.07 28.8 83.9 21 5 41
14:00 1019 30.09 848 25.04 28.5 83.2 23 5.6 42
14:05 1019 30.09 848 25.04 29 84.2 22 5.3 41.6
14:10 1019 30.09 848 25.04 29.2 84.6 21 5.3 41.5
14:15 1019 30.09 848 25.04 29.3 84.8 20 4.3 39.7
14:20 1019 30.09 848 25.04 29.1 84.4 21 5.2 41.4
14:25 1019 30.09 848 25.04 29.5 85 20 4.8 40.7
14:30 1019 30.09 848 25.04 29.3 84.8 22 5.6 42.1
14:35 1019 30.09 848 25.04 28.8 83.9 22 5 41.1
14:40 1019 30.09 848 25.04 28.9 84 22 5.5 41.9
14:45 1019 30.09 848 25.04 29.2 84.6 22 5.8 42.4
14:50 1019 30.09 848 25.04 29.4 84.9 22 6 42.8
14:55 1019 30.09 848 25.04 29.5 85.1 21 5 40.9
15:00 1019 30.09 848 25.04 29.7 85.4 20 4.9 40.8
15:05 1018 30.06 848 25.04 30.3 86.5 20 5.3 41.5
15:10 1018 30.06 848 25.04 30.3 86.6 20 5.1 41.3
15:15 1018 30.06 848 25.04 30.2 86.3 19 4.6 40.2
15:20 1018 30.06 848 25.04 30.3 86.5 19 4.1 39.3
15:25 1018 30.06 848 25.04 30.5 86.9 18 4.1 39.5
15:30 1018 30.06 847 25.01 31.4 88.5 18 4.3 39.8
15:35 1018 30.06 847 25.01 31.3 88.3 17 4 39.3
15:40 1018 30.06 847 25.01 30.6 87 17 2.9 37.2
15:45 1018 30.06 847 25.01 29.8 85.7 16 1.8 35.2
15:50 1018 30.06 847 25.01 30.2 86.3 16 2 35.6
15:55 1018 30.06 847 25.01 30.5 86.9 16 2 35.7
16:00 1018 30.06 847 25.01 30.9 87.7 16 2.7 36.9
16:05 1018 30.06 847 25.01 30.8 87.5 16 2.4 36.3
16:10 1018 30.06 847 25.01 30.5 86.8 17 3.4 38.1
16:15 1018 30.06 847 25.01 30.8 87.5 16 2.5 36.5
16:20 1017 30.03 847 25.01 31.3 88.4 15 2.1 35.8
16:25 1017 30.03 847 25.01 30.9 87.6 15 1.8 35.3
16:30 1017 30.03 847 25.01 31.1 87.9 16 2.4 36.2
16:35 1017 30.03 846 24.98 31.1 87.9 16 2.6 36.7
16:40 1017 30.03 846 24.98 31.3 88.3 16 2.6 36.6
16:45 1017 30.03 846 24.98 31.6 88.8 15 2.3 36.1
16:50 1017 30.03 846 24.98 31.2 88.1 16 2.6 36.6
16:55 1017 30.03 846 24.98 31.2 88.2 15 2.2 36
17:00 1017 30.03 846 24.98 31.4 88.5 15 1.9 35.5
17:05 1017 30.03 846 24.98 31.6 88.8 15 2.6 36.7
17:10 1017 30.03 846 24.98 31.6 89 16 3.1 37.5
17:15 1017 30.03 846 24.98 31.5 88.7 15 2.1 35.7
17:20 1017 30.03 846 24.98 31.4 88.5 15 2.3 36.1
17:25 1017 30.03 846 24.98 30.6 87.1 15 1.8 35.3
17:30 1017 30.03 846 24.98 31.1 88 15 2.2 35.9
17:35 1017 30.03 846 24.98 31.2 88.1 15 2.3 36.1
17:40 1017 30.03 846 24.98 31.1 88 16 2.5 36.5
17:45 1017 30.03 846 24.98 31 87.8 15 2.1 35.7
17:50 1017 30.03 846 24.98 31.2 88.1 15 2.2 35.9
17:55 1017 30.03 846 24.98 31 87.7 15 2.1 35.8
18:00 1016 30 846 24.98 30.5 87 18 3.8 38.9
18:05 1016 30 846 24.98 30.2 86.4 16 1.7 35
18:10 1016 30 845 24.95 30.6 87.1 15 1.5 34.7
18:15 1016 30 845 24.95 31.2 88.1 15 1.9 35.5
18:20 1016 30 845 24.95 31 87.7 15 1.4 34.4
18:25 1016 30 845 24.95 30.7 87.2 15 1.8 35.2
18:30 1016 30 845 24.95 30.7 87.2 15 1.9 35.4
18:35 1016 30 845 24.95 30.5 86.9 16 2.6 36.7
18:40 1016 30 845 24.95 30.4 86.7 16 2.2 36
18:45 1016 30 845 24.95 30.7 87.2 19 4.9 40.9
18:50 1016 30 845 24.95 30.7 87.2 15 1.2 34.2
18:55 1016 30 845 24.95 30.4 86.8 15 1.4 34.4
19:00 1016 30 845 24.95 29.9 85.7 16 1.6 34.9
19:05 1016 30 845 24.95 29.7 85.5 16 1.6 34.8
19:10 1016 30 845 24.95 29.6 85.3 15 1 33.8
19:15 1016 30 845 24.95 29.5 85.1 16 1.5 34.6
19:20 1016 30 845 24.95 29.5 85 17 2.4 36.3
19:25 1016 30 845 24.95 29.3 84.7 18 2.8 37
19:30 1016 30 845 24.95 29.1 84.3 15 0.3 32.6
19:35 1016 30 845 24.95 28.9 84.1 16 0.9 33.6
19:40 1016 30 845 24.95 28.9 84 15 0 32
19:45 1016 30 845 24.95 28.7 83.6 21 4.5 40
19:50 1015 29.97 845 24.95 28.5 83.3 22 5.1 41.2
19:55 1015 29.97 845 24.95 28.4 83 16 0.2 32.4
20:00 1015 29.97 845 24.95 28.2 82.7 21 4.3 39.8
20:05 1015 29.97 845 24.95 27.5 81.5 26 6.3 43.4
20:10 1015 29.97 845 24.95 27.1 80.8 24 4.9 40.8
20:15 1015 29.97 845 24.95 27.3 81.1 22 4.2 39.6
20:20 1015 29.97 845 24.95 27 80.5 19 1.9 35.4
20:25 1016 30 845 24.95 26.8 80.2 16 -1.1 30
20:30 1016 30 845 24.95 26.3 79.3 17 -0.2 31.6
20:35 1016 30 845 24.95 25.7 78.3 16 -1.9 28.6
20:40 1016 30 845 24.95 25.6 78.1 15 -2.7 27.2
20:45 1016 30 845 24.95 25.7 78.2 15 -2.3 27.8
20:50 1016 30 845 24.95 25.2 77.4 20 0.8 33.5
20:55 1016 30 845 24.95 24.1 75.3 21 0.8 33.4
21:00 1016 30 845 24.95 23.5 74.4 23 1.4 34.5
21:05 1016 30 845 24.95 23.2 73.7 22 0.2 32.4
21:10 1016 30 845 24.95 23.1 73.6 24 1.8 35.3
21:15 1016 30 845 24.95 23.3 73.9 25 2.6 36.7
21:20 1016 30 845 24.95 23.2 73.8 22 0.5 32.8
21:25 1016 30 845 24.95 23.3 74 19 -1.6 29.1
21:30 1016 30 845 24.95 23.2 73.8 21 -0.4 31.3
21:35 1015 29.97 845 24.95 23 73.3 18 -2.4 27.7
21:40 1015 29.97 845 24.95 23.3 73.9 20 -0.5 31.1
21:45 1016 30 845 24.95 22.4 72.4 22 -0.2 31.6
21:50 1016 30 845 24.95 21.9 71.4 25 1.2 34.1
21:55 1015 29.97 845 24.95 21.8 71.3 24 0.3 32.5
22:00 1015 29.97 845 24.95 21.3 70.3 25 0.6 33.1
22:05 1015 29.97 845 24.95 21.3 70.3 22 -0.9 30.3
22:10 1015 29.97 845 24.95 21.5 70.8 24 0.4 32.6
22:15 1015 29.97 844 24.92 21 69.8 23 -0.7 30.8
22:20 1015 29.97 844 24.92 20.9 69.5 23 -1.1 30.1
22:25 1015 29.97 844 24.92 21.3 70.4 21 -1.9 28.5
22:30 1015 29.97 844 24.92 21.7 71 21 -1.4 29.5
22:35 1015 29.97 844 24.92 21.7 71 20 -1.8 28.7
22:40 1015 29.97 844 24.92 21.9 71.4 20 -1.8 28.8
22:45 1015 29.97 844 24.92 21.7 71 21 -1.6 29.1
22:50 1015 29.97 844 24.92 21.6 70.9 22 -1 30.2
22:55 1015 29.97 844 24.92 21.3 70.4 20 -2.2 28
23:00 1015 29.97 844 24.92 21.5 70.7 21 -1.5 29.2
23:05 1015 29.97 844 24.92 21.6 70.8 20 -2.3 27.9
23:10 1015 29.97 844 24.92 22.2 71.9 19 -2.5 27.5
23:15 1015 29.97 844 24.92 22 71.5 20 -1.8 28.7
23:20 1015 29.97 844 24.92 22.4 72.2 19 -2.5 27.5
23:25 1015 29.97 844 24.92 22.9 73.3 17 -3 26.5
23:30 1015 29.97 844 24.92 22.8 73.1 20 -0.9 30.4
23:35 1015 29.97 844 24.92 22.2 72 22 -0.4 31.2
23:40 1015 29.97 844 24.92 21.4 70.5 23 -0.4 31.3
23:45 1014 29.94 844 24.92 20.9 69.7 21 -2.2 28.1
23:50 1014 29.94 844 24.92 21.1 70 22 -1.1 30
23:55 1014 29.94 844 24.92 21.5 70.7 21 -1.6 29.2
24:00 1014 29.94 844 24.92 21.4 70.4 22 -1.2 29.9